sensor_id;sensor_type;location;lat;lon;timestamp;P1;durP1;ratioP1;P2;durP2;ratioP2
48987;SDS011;34799;51.440;-2.534;2022-09-27T00:01:30;7.68;;;0.30;;
48987;SDS011;34799;51.440;-2.534;2022-09-27T00:03:57;4.15;;;0.30;;
48987;SDS011;34799;51.440;-2.534;2022-09-27T00:06:26;4.18;;;0.35;;
48987;SDS011;34799;51.440;-2.534;2022-09-27T00:08:55;3.15;;;0.38;;
48987;SDS011;34799;51.440;-2.534;2022-09-27T00:11:24;2.60;;;0.85;;
48987;SDS011;34799;51.440;-2.534;2022-09-27T00:14:03;6.20;;;0.50;;
48987;SDS011;34799;51.440;-2.534;2022-09-27T00:16:32;3.58;;;0.40;;
48987;SDS011;34799;51.440;-2.534;2022-09-27T00:19:01;3.50;;;0.50;;
48987;SDS011;34799;51.440;-2.534;2022-09-27T00:21:31;4.15;;;0.63;;
48987;SDS011;34799;51.440;-2.534;2022-09-27T00:23:58;4.25;;;0.20;;
48987;SDS011;34799;51.440;-2.534;2022-09-27T00:26:26;1.40;;;0.43;;
48987;SDS011;34799;51.440;-2.534;2022-09-27T00:28:55;4.13;;;0.40;;
48987;SDS011;34799;51.440;-2.534;2022-09-27T00:31:23;5.03;;;0.20;;
48987;SDS011;34799;51.440;-2.534;2022-09-27T00:33:57;6.20;;;0.60;;
48987;SDS011;34799;51.440;-2.534;2022-09-27T00:36:26;6.03;;;0.90;;
48987;SDS011;34799;51.440;-2.534;2022-09-27T00:38:54;6.10;;;0.85;;
48987;SDS011;34799;51.440;-2.534;2022-09-27T00:41:23;3.90;;;0.22;;
48987;SDS011;34799;51.440;-2.534;2022-09-27T00:43:53;6.72;;;0.30;;
48987;SDS011;34799;51.440;-2.534;2022-09-27T00:46:27;4.93;;;0.52;;
48987;SDS011;34799;51.440;-2.534;2022-09-27T00:48:59;5.10;;;0.40;;
48987;SDS011;34799;51.440;-2.534;2022-09-27T00:51:42;2.78;;;0.40;;
48987;SDS011;34799;51.440;-2.534;2022-09-27T00:54:13;5.35;;;0.80;;
48987;SDS011;34799;51.440;-2.534;2022-09-27T00:56:45;5.13;;;0.30;;
48987;SDS011;34799;51.440;-2.534;2022-09-27T00:59:22;6.13;;;0.63;;
48987;SDS011;34799;51.440;-2.534;2022-09-27T01:02:04;5.70;;;0.45;;
48987;SDS011;34799;51.440;-2.534;2022-09-27T01:04:33;6.60;;;0.40;;
48987;SDS011;34799;51.440;-2.534;2022-09-27T01:07:02;4.50;;;0.60;;
48987;SDS011;34799;51.440;-2.534;2022-09-27T01:09:30;7.53;;;0.30;;
48987;SDS011;34799;51.440;-2.534;2022-09-27T01:14:46;6.43;;;0.38;;
48987;SDS011;34799;51.440;-2.534;2022-09-27T01:26:15;5.03;;;0.30;;
48987;SDS011;34799;51.440;-2.534;2022-09-27T01:43:24;3.33;;;0.50;;
48987;SDS011;34799;51.440;-2.534;2022-09-27T01:46:03;3.83;;;0.30;;
48987;SDS011;34799;51.440;-2.534;2022-09-27T01:49:02;4.68;;;0.60;;
48987;SDS011;34799;51.440;-2.534;2022-09-27T01:51:42;3.60;;;0.38;;
48987;SDS011;34799;51.440;-2.534;2022-09-27T01:55:06;7.70;;;0.70;;
48987;SDS011;34799;51.440;-2.534;2022-09-27T01:57:40;5.40;;;0.50;;
48987;SDS011;34799;51.440;-2.534;2022-09-27T02:00:19;5.35;;;0.28;;
48987;SDS011;34799;51.440;-2.534;2022-09-27T02:02:51;8.73;;;1.05;;
48987;SDS011;34799;51.440;-2.534;2022-09-27T02:05:37;2.85;;;0.30;;
48987;SDS011;34799;51.440;-2.534;2022-09-27T02:08:42;3.80;;;0.55;;
48987;SDS011;34799;51.440;-2.534;2022-09-27T02:11:22;3.45;;;1.00;;
48987;SDS011;34799;51.440;-2.534;2022-09-27T02:14:00;6.38;;;0.63;;
48987;SDS011;34799;51.440;-2.534;2022-09-27T02:16:51;4.47;;;0.45;;
48987;SDS011;34799;51.440;-2.534;2022-09-27T02:20:00;3.22;;;0.30;;
48987;SDS011;34799;51.440;-2.534;2022-09-27T02:22:35;6.72;;;0.60;;
48987;SDS011;34799;51.440;-2.534;2022-09-27T02:25:17;7.95;;;0.55;;
48987;SDS011;34799;51.440;-2.534;2022-09-27T02:27:58;6.65;;;0.68;;
48987;SDS011;34799;51.440;-2.534;2022-09-27T02:30:36;5.80;;;0.60;;
48987;SDS011;34799;51.440;-2.534;2022-09-27T02:36:04;5.30;;;0.40;;
48987;SDS011;34799;51.440;-2.534;2022-09-27T02:38:32;7.38;;;0.45;;
48987;SDS011;34799;51.440;-2.534;2022-09-27T02:41:00;7.75;;;0.60;;
48987;SDS011;34799;51.440;-2.534;2022-09-27T02:43:29;6.50;;;0.80;;
48987;SDS011;34799;51.440;-2.534;2022-09-27T02:46:07;3.95;;;0.38;;
48987;SDS011;34799;51.440;-2.534;2022-09-27T02:48:54;5.72;;;0.60;;
48987;SDS011;34799;51.440;-2.534;2022-09-27T02:51:50;5.45;;;0.70;;
48987;SDS011;34799;51.440;-2.534;2022-09-27T03:00:04;6.45;;;0.50;;
48987;SDS011;34799;51.440;-2.534;2022-09-27T03:03:02;9.55;;;0.50;;
48987;SDS011;34799;51.440;-2.534;2022-09-27T03:05:42;9.52;;;1.13;;
48987;SDS011;34799;51.440;-2.534;2022-09-27T03:08:17;6.97;;;0.70;;
48987;SDS011;34799;51.440;-2.534;2022-09-27T03:10:45;14.50;;;0.70;;
48987;SDS011;34799;51.440;-2.534;2022-09-27T03:13:12;4.88;;;1.35;;
48987;SDS011;34799;51.440;-2.534;2022-09-27T03:15:40;8.65;;;0.77;;
48987;SDS011;34799;51.440;-2.534;2022-09-27T03:18:16;5.40;;;0.52;;
48987;SDS011;34799;51.440;-2.534;2022-09-27T03:21:02;7.53;;;0.73;;
48987;SDS011;34799;51.440;-2.534;2022-09-27T03:23:30;7.38;;;0.65;;
48987;SDS011;34799;51.440;-2.534;2022-09-27T03:25:57;5.07;;;0.57;;
48987;SDS011;34799;51.440;-2.534;2022-09-27T03:28:25;13.70;;;0.77;;
48987;SDS011;34799;51.440;-2.534;2022-09-27T03:30:56;9.38;;;1.10;;
48987;SDS011;34799;51.440;-2.534;2022-09-27T03:33:43;12.38;;;1.05;;
48987;SDS011;34799;51.440;-2.534;2022-09-27T03:36:10;15.43;;;0.75;;
48987;SDS011;34799;51.440;-2.534;2022-09-27T03:38:38;7.47;;;1.40;;
48987;SDS011;34799;51.440;-2.534;2022-09-27T03:41:09;13.07;;;1.08;;
48987;SDS011;34799;51.440;-2.534;2022-09-27T03:43:37;8.35;;;0.63;;
48987;SDS011;34799;51.440;-2.534;2022-09-27T03:46:05;14.88;;;1.05;;
48987;SDS011;34799;51.440;-2.534;2022-09-27T03:48:32;8.30;;;0.55;;
48987;SDS011;34799;51.440;-2.534;2022-09-27T03:51:00;9.13;;;0.75;;
48987;SDS011;34799;51.440;-2.534;2022-09-27T03:53:27;21.17;;;2.47;;
48987;SDS011;34799;51.440;-2.534;2022-09-27T03:55:54;11.45;;;0.80;;
48987;SDS011;34799;51.440;-2.534;2022-09-27T03:58:23;12.98;;;1.90;;
48987;SDS011;34799;51.440;-2.534;2022-09-27T04:00:50;7.50;;;0.75;;
48987;SDS011;34799;51.440;-2.534;2022-09-27T04:03:17;15.55;;;0.80;;
48987;SDS011;34799;51.440;-2.534;2022-09-27T04:06:03;12.00;;;0.73;;
48987;SDS011;34799;51.440;-2.534;2022-09-27T04:08:37;9.90;;;0.98;;
48987;SDS011;34799;51.440;-2.534;2022-09-27T04:11:05;10.95;;;0.73;;
48987;SDS011;34799;51.440;-2.534;2022-09-27T04:13:34;12.85;;;1.95;;
48987;SDS011;34799;51.440;-2.534;2022-09-27T04:16:01;10.15;;;0.93;;
48987;SDS011;34799;51.440;-2.534;2022-09-27T04:18:47;9.07;;;1.05;;
48987;SDS011;34799;51.440;-2.534;2022-09-27T04:21:40;9.60;;;0.98;;
48987;SDS011;34799;51.440;-2.534;2022-09-27T04:24:08;9.35;;;1.38;;
48987;SDS011;34799;51.440;-2.534;2022-09-27T04:26:42;10.10;;;1.15;;
48987;SDS011;34799;51.440;-2.534;2022-09-27T04:29:12;11.38;;;0.98;;
48987;SDS011;34799;51.440;-2.534;2022-09-27T04:31:47;13.63;;;0.95;;
48987;SDS011;34799;51.440;-2.534;2022-09-27T04:34:43;7.22;;;1.05;;
48987;SDS011;34799;51.440;-2.534;2022-09-27T04:37:29;8.68;;;1.00;;
48987;SDS011;34799;51.440;-2.534;2022-09-27T04:40:00;10.88;;;0.70;;
48987;SDS011;34799;51.440;-2.534;2022-09-27T04:42:29;12.32;;;1.60;;
48987;SDS011;34799;51.440;-2.534;2022-09-27T04:44:56;9.55;;;0.80;;
48987;SDS011;34799;51.440;-2.534;2022-09-27T04:47:24;10.63;;;0.77;;
48987;SDS011;34799;51.440;-2.534;2022-09-27T04:49:51;12.02;;;1.42;;
48987;SDS011;34799;51.440;-2.534;2022-09-27T04:52:18;8.82;;;0.98;;
48987;SDS011;34799;51.440;-2.534;2022-09-27T04:54:45;10.73;;;1.25;;
48987;SDS011;34799;51.440;-2.534;2022-09-27T04:57:12;6.63;;;0.57;;
48987;SDS011;34799;51.440;-2.534;2022-09-27T04:59:41;10.00;;;0.70;;
48987;SDS011;34799;51.440;-2.534;2022-09-27T05:02:10;11.85;;;0.80;;
48987;SDS011;34799;51.440;-2.534;2022-09-27T05:04:54;9.23;;;0.90;;
48987;SDS011;34799;51.440;-2.534;2022-09-27T05:07:36;7.07;;;0.57;;
48987;SDS011;34799;51.440;-2.534;2022-09-27T05:10:10;7.65;;;1.15;;
48987;SDS011;34799;51.440;-2.534;2022-09-27T05:12:37;10.23;;;0.85;;
48987;SDS011;34799;51.440;-2.534;2022-09-27T05:15:04;9.88;;;0.73;;
48987;SDS011;34799;51.440;-2.534;2022-09-27T05:18:04;10.70;;;1.00;;
48987;SDS011;34799;51.440;-2.534;2022-09-27T05:20:52;16.48;;;1.05;;
48987;SDS011;34799;51.440;-2.534;2022-09-27T05:23:28;13.55;;;0.77;;
48987;SDS011;34799;51.440;-2.534;2022-09-27T05:25:55;10.77;;;1.15;;
48987;SDS011;34799;51.440;-2.534;2022-09-27T05:28:23;9.20;;;0.70;;
48987;SDS011;34799;51.440;-2.534;2022-09-27T05:30:50;12.88;;;1.15;;
48987;SDS011;34799;51.440;-2.534;2022-09-27T05:33:20;13.95;;;0.70;;
48987;SDS011;34799;51.440;-2.534;2022-09-27T05:35:50;9.48;;;0.65;;
48987;SDS011;34799;51.440;-2.534;2022-09-27T05:38:25;7.32;;;0.80;;
48987;SDS011;34799;51.440;-2.534;2022-09-27T05:40:55;9.98;;;0.95;;
48987;SDS011;34799;51.440;-2.534;2022-09-27T05:43:24;14.38;;;0.88;;
48987;SDS011;34799;51.440;-2.534;2022-09-27T05:45:51;11.73;;;0.80;;
48987;SDS011;34799;51.440;-2.534;2022-09-27T05:48:20;9.13;;;1.15;;
48987;SDS011;34799;51.440;-2.534;2022-09-27T05:50:54;8.05;;;0.60;;
48987;SDS011;34799;51.440;-2.534;2022-09-27T05:53:21;12.18;;;1.55;;
48987;SDS011;34799;51.440;-2.534;2022-09-27T05:55:49;6.80;;;0.70;;
48987;SDS011;34799;51.440;-2.534;2022-09-27T05:58:22;8.15;;;1.17;;
48987;SDS011;34799;51.440;-2.534;2022-09-27T06:01:00;7.85;;;1.30;;
48987;SDS011;34799;51.440;-2.534;2022-09-27T06:03:57;8.90;;;1.27;;
48987;SDS011;34799;51.440;-2.534;2022-09-27T06:06:44;11.98;;;1.33;;
48987;SDS011;34799;51.440;-2.534;2022-09-27T06:09:13;14.85;;;1.13;;
48987;SDS011;34799;51.440;-2.534;2022-09-27T06:11:42;8.48;;;0.80;;
48987;SDS011;34799;51.440;-2.534;2022-09-27T06:14:13;8.20;;;0.82;;
48987;SDS011;34799;51.440;-2.534;2022-09-27T06:17:00;11.38;;;1.10;;
48987;SDS011;34799;51.440;-2.534;2022-09-27T06:19:32;12.20;;;0.90;;
48987;SDS011;34799;51.440;-2.534;2022-09-27T06:22:00;5.28;;;0.77;;
48987;SDS011;34799;51.440;-2.534;2022-09-27T06:24:37;11.20;;;0.80;;
48987;SDS011;34799;51.440;-2.534;2022-09-27T06:27:11;8.60;;;1.13;;
48987;SDS011;34799;51.440;-2.534;2022-09-27T06:29:46;9.52;;;0.90;;
48987;SDS011;34799;51.440;-2.534;2022-09-27T06:32:27;9.25;;;1.00;;
48987;SDS011;34799;51.440;-2.534;2022-09-27T06:35:09;13.88;;;1.73;;
48987;SDS011;34799;51.440;-2.534;2022-09-27T06:37:36;10.93;;;0.88;;
48987;SDS011;34799;51.440;-2.534;2022-09-27T06:40:04;16.13;;;1.50;;
48987;SDS011;34799;51.440;-2.534;2022-09-27T06:43:00;10.52;;;1.25;;
48987;SDS011;34799;51.440;-2.534;2022-09-27T06:46:01;12.30;;;1.80;;
48987;SDS011;34799;51.440;-2.534;2022-09-27T06:48:50;13.23;;;1.17;;
48987;SDS011;34799;51.440;-2.534;2022-09-27T06:51:18;9.95;;;0.88;;
48987;SDS011;34799;51.440;-2.534;2022-09-27T06:53:47;12.80;;;0.88;;
48987;SDS011;34799;51.440;-2.534;2022-09-27T06:56:15;19.27;;;2.75;;
48987;SDS011;34799;51.440;-2.534;2022-09-27T06:58:46;16.35;;;1.08;;
48987;SDS011;34799;51.440;-2.534;2022-09-27T07:01:41;21.65;;;1.75;;
48987;SDS011;34799;51.440;-2.534;2022-09-27T07:04:28;18.85;;;2.10;;
48987;SDS011;34799;51.440;-2.534;2022-09-27T07:07:01;11.07;;;1.17;;
48987;SDS011;34799;51.440;-2.534;2022-09-27T07:09:32;14.85;;;0.85;;
48987;SDS011;34799;51.440;-2.534;2022-09-27T07:11:59;15.23;;;1.88;;
48987;SDS011;34799;51.440;-2.534;2022-09-27T07:14:29;10.70;;;1.42;;
48987;SDS011;34799;51.440;-2.534;2022-09-27T07:16:56;22.55;;;1.88;;
48987;SDS011;34799;51.440;-2.534;2022-09-27T07:19:24;10.13;;;1.08;;
48987;SDS011;34799;51.440;-2.534;2022-09-27T07:21:52;14.68;;;2.22;;
48987;SDS011;34799;51.440;-2.534;2022-09-27T07:24:21;14.60;;;1.63;;
48987;SDS011;34799;51.440;-2.534;2022-09-27T07:26:48;20.27;;;1.90;;
48987;SDS011;34799;51.440;-2.534;2022-09-27T07:29:18;14.70;;;1.52;;
48987;SDS011;34799;51.440;-2.534;2022-09-27T07:31:47;15.50;;;1.40;;
48987;SDS011;34799;51.440;-2.534;2022-09-27T07:34:14;15.40;;;1.95;;
48987;SDS011;34799;51.440;-2.534;2022-09-27T07:36:44;16.50;;;1.58;;
48987;SDS011;34799;51.440;-2.534;2022-09-27T07:39:12;15.55;;;2.70;;
48987;SDS011;34799;51.440;-2.534;2022-09-27T07:41:42;9.35;;;0.90;;
48987;SDS011;34799;51.440;-2.534;2022-09-27T07:44:10;11.50;;;1.60;;
48987;SDS011;34799;51.440;-2.534;2022-09-27T07:46:51;9.85;;;1.30;;
48987;SDS011;34799;51.440;-2.534;2022-09-27T07:49:27;11.68;;;1.80;;
48987;SDS011;34799;51.440;-2.534;2022-09-27T07:52:24;15.93;;;1.73;;
48987;SDS011;34799;51.440;-2.534;2022-09-27T07:55:14;13.73;;;1.23;;
48987;SDS011;34799;51.440;-2.534;2022-09-27T07:58:03;12.68;;;1.17;;
48987;SDS011;34799;51.440;-2.534;2022-09-27T08:00:32;13.98;;;1.63;;
48987;SDS011;34799;51.440;-2.534;2022-09-27T08:03:02;14.85;;;1.25;;
48987;SDS011;34799;51.440;-2.534;2022-09-27T08:05:34;15.07;;;2.28;;
48987;SDS011;34799;51.440;-2.534;2022-09-27T08:08:03;8.30;;;1.33;;
48987;SDS011;34799;51.440;-2.534;2022-09-27T08:10:31;15.13;;;1.63;;
48987;SDS011;34799;51.440;-2.534;2022-09-27T08:13:03;12.90;;;2.10;;
48987;SDS011;34799;51.440;-2.534;2022-09-27T08:15:31;16.80;;;1.50;;
48987;SDS011;34799;51.440;-2.534;2022-09-27T08:17:58;21.50;;;3.42;;
48987;SDS011;34799;51.440;-2.534;2022-09-27T08:20:45;23.17;;;2.53;;
48987;SDS011;34799;51.440;-2.534;2022-09-27T08:23:25;23.27;;;2.28;;
48987;SDS011;34799;51.440;-2.534;2022-09-27T08:26:11;15.95;;;3.40;;
48987;SDS011;34799;51.440;-2.534;2022-09-27T08:29:01;23.23;;;2.65;;
48987;SDS011;34799;51.440;-2.534;2022-09-27T08:31:31;17.70;;;2.45;;
48987;SDS011;34799;51.440;-2.534;2022-09-27T08:33:59;18.60;;;1.80;;
48987;SDS011;34799;51.440;-2.534;2022-09-27T08:36:27;23.15;;;3.00;;
48987;SDS011;34799;51.440;-2.534;2022-09-27T08:38:54;26.05;;;2.75;;
48987;SDS011;34799;51.440;-2.534;2022-09-27T08:41:36;22.70;;;2.17;;
48987;SDS011;34799;51.440;-2.534;2022-09-27T08:47:05;19.45;;;2.65;;
48987;SDS011;34799;51.440;-2.534;2022-09-27T08:50:20;20.08;;;2.30;;
48987;SDS011;34799;51.440;-2.534;2022-09-27T08:52:51;24.48;;;2.45;;
48987;SDS011;34799;51.440;-2.534;2022-09-27T08:55:27;22.60;;;2.22;;
48987;SDS011;34799;51.440;-2.534;2022-09-27T08:58:48;22.65;;;2.17;;
48987;SDS011;34799;51.440;-2.534;2022-09-27T09:01:11;15.85;;;1.73;;
48987;SDS011;34799;51.440;-2.534;2022-09-27T09:03:52;16.50;;;2.13;;
48987;SDS011;34799;51.440;-2.534;2022-09-27T09:06:23;16.98;;;1.65;;
48987;SDS011;34799;51.440;-2.534;2022-09-27T09:09:12;19.00;;;1.50;;
48987;SDS011;34799;51.440;-2.534;2022-09-27T09:12:29;17.05;;;1.85;;
48987;SDS011;34799;51.440;-2.534;2022-09-27T09:15:50;18.45;;;2.45;;
48987;SDS011;34799;51.440;-2.534;2022-09-27T09:24:48;16.58;;;2.30;;
48987;SDS011;34799;51.440;-2.534;2022-09-27T09:27:23;18.77;;;2.38;;
48987;SDS011;34799;51.440;-2.534;2022-09-27T09:30:10;18.30;;;2.15;;
48987;SDS011;34799;51.440;-2.534;2022-09-27T09:33:14;16.83;;;1.95;;
48987;SDS011;34799;51.440;-2.534;2022-09-27T09:38:57;13.07;;;1.45;;
48987;SDS011;34799;51.440;-2.534;2022-09-27T09:44:17;15.48;;;1.73;;
48987;SDS011;34799;51.440;-2.534;2022-09-27T09:46:48;15.07;;;1.65;;
48987;SDS011;34799;51.440;-2.534;2022-09-27T09:51:51;13.43;;;1.20;;
48987;SDS011;34799;51.440;-2.534;2022-09-27T09:54:34;13.53;;;1.50;;
48987;SDS011;34799;51.440;-2.534;2022-09-27T09:57:12;24.38;;;2.22;;
48987;SDS011;34799;51.440;-2.534;2022-09-27T10:02:44;13.95;;;1.40;;
48987;SDS011;34799;51.440;-2.534;2022-09-27T10:05:22;9.50;;;1.63;;
48987;SDS011;34799;51.440;-2.534;2022-09-27T10:07:57;8.43;;;1.30;;
48987;SDS011;34799;51.440;-2.534;2022-09-27T10:10:28;12.35;;;1.40;;
48987;SDS011;34799;51.440;-2.534;2022-09-27T10:13:19;14.25;;;1.38;;
48987;SDS011;34799;51.440;-2.534;2022-09-27T10:15:56;12.68;;;1.48;;
48987;SDS011;34799;51.440;-2.534;2022-09-27T10:18:31;14.45;;;1.60;;
48987;SDS011;34799;51.440;-2.534;2022-09-27T10:21:09;13.80;;;2.25;;
48987;SDS011;34799;51.440;-2.534;2022-09-27T10:26:57;11.57;;;1.02;;
48987;SDS011;34799;51.440;-2.534;2022-09-27T10:32:01;17.10;;;1.25;;
48987;SDS011;34799;51.440;-2.534;2022-09-27T10:34:41;15.52;;;2.05;;
48987;SDS011;34799;51.440;-2.534;2022-09-27T10:40:15;15.27;;;2.30;;
48987;SDS011;34799;51.440;-2.534;2022-09-27T10:42:55;16.08;;;1.35;;
48987;SDS011;34799;51.440;-2.534;2022-09-27T10:45:32;14.88;;;1.40;;
48987;SDS011;34799;51.440;-2.534;2022-09-27T10:48:19;17.25;;;1.95;;
48987;SDS011;34799;51.440;-2.534;2022-09-27T10:50:54;13.50;;;1.55;;
48987;SDS011;34799;51.440;-2.534;2022-09-27T10:53:34;14.88;;;2.08;;
48987;SDS011;34799;51.440;-2.534;2022-09-27T10:56:13;12.50;;;1.40;;
48987;SDS011;34799;51.440;-2.534;2022-09-27T10:58:48;14.20;;;1.45;;
48987;SDS011;34799;51.440;-2.534;2022-09-27T11:01:17;12.38;;;2.92;;
48987;SDS011;34799;51.440;-2.534;2022-09-27T11:04:01;16.20;;;1.70;;
48987;SDS011;34799;51.440;-2.534;2022-09-27T11:06:30;17.60;;;1.52;;
48987;SDS011;34799;51.440;-2.534;2022-09-27T11:09:09;13.65;;;2.13;;
48987;SDS011;34799;51.440;-2.534;2022-09-27T11:11:46;17.27;;;1.75;;
48987;SDS011;34799;51.440;-2.534;2022-09-27T11:14:20;19.85;;;1.83;;
48987;SDS011;34799;51.440;-2.534;2022-09-27T11:19:57;17.98;;;2.05;;
48987;SDS011;34799;51.440;-2.534;2022-09-27T11:23:01;13.57;;;1.92;;
48987;SDS011;34799;51.440;-2.534;2022-09-27T11:25:59;17.73;;;1.10;;
48987;SDS011;34799;51.440;-2.534;2022-09-27T11:34:39;13.52;;;1.70;;
48987;SDS011;34799;51.440;-2.534;2022-09-27T11:43:17;20.90;;;1.73;;
48987;SDS011;34799;51.440;-2.534;2022-09-27T11:57:44;17.33;;;1.65;;
48987;SDS011;34799;51.440;-2.534;2022-09-27T12:00:21;9.77;;;1.17;;
48987;SDS011;34799;51.440;-2.534;2022-09-27T12:05:55;14.68;;;1.52;;
48987;SDS011;34799;51.440;-2.534;2022-09-27T12:08:47;15.68;;;1.40;;
48987;SDS011;34799;51.440;-2.534;2022-09-27T12:11:45;12.18;;;1.48;;
48987;SDS011;34799;51.440;-2.534;2022-09-27T12:14:34;15.63;;;1.10;;
48987;SDS011;34799;51.440;-2.534;2022-09-27T12:17:26;14.43;;;1.50;;
48987;SDS011;34799;51.440;-2.534;2022-09-27T12:19:59;13.90;;;1.70;;
48987;SDS011;34799;51.440;-2.534;2022-09-27T12:22:46;14.00;;;1.67;;
48987;SDS011;34799;51.440;-2.534;2022-09-27T12:25:45;19.92;;;1.88;;
48987;SDS011;34799;51.440;-2.534;2022-09-27T12:28:36;13.38;;;1.27;;
48987;SDS011;34799;51.440;-2.534;2022-09-27T12:31:27;14.07;;;1.13;;
48987;SDS011;34799;51.440;-2.534;2022-09-27T12:36:36;13.35;;;1.20;;
48987;SDS011;34799;51.440;-2.534;2022-09-27T12:39:12;14.40;;;1.27;;
48987;SDS011;34799;51.440;-2.534;2022-09-27T12:41:47;12.25;;;1.20;;
48987;SDS011;34799;51.440;-2.534;2022-09-27T12:44:39;10.18;;;1.10;;
48987;SDS011;34799;51.440;-2.534;2022-09-27T12:47:15;12.02;;;1.23;;
48987;SDS011;34799;51.440;-2.534;2022-09-27T12:49:58;14.98;;;0.90;;
48987;SDS011;34799;51.440;-2.534;2022-09-27T12:52:40;13.52;;;1.27;;
48987;SDS011;34799;51.440;-2.534;2022-09-27T13:00:56;7.45;;;1.02;;
48987;SDS011;34799;51.440;-2.534;2022-09-27T13:12:07;13.40;;;1.67;;
48987;SDS011;34799;51.440;-2.534;2022-09-27T13:15:40;11.40;;;1.05;;
48987;SDS011;34799;51.440;-2.534;2022-09-27T13:23:00;13.45;;;1.30;;
48987;SDS011;34799;51.440;-2.534;2022-09-27T13:25:47;12.68;;;2.13;;
48987;SDS011;34799;51.440;-2.534;2022-09-27T13:28:56;11.30;;;0.90;;
48987;SDS011;34799;51.440;-2.534;2022-09-27T13:46:47;10.38;;;1.30;;
48987;SDS011;34799;51.440;-2.534;2022-09-27T13:49:43;9.48;;;0.80;;
48987;SDS011;34799;51.440;-2.534;2022-09-27T13:52:29;14.20;;;1.25;;
48987;SDS011;34799;51.440;-2.534;2022-09-27T13:55:37;13.45;;;1.10;;
48987;SDS011;34799;51.440;-2.534;2022-09-27T14:00:57;12.65;;;1.27;;
48987;SDS011;34799;51.440;-2.534;2022-09-27T14:03:27;9.68;;;1.50;;
48987;SDS011;34799;51.440;-2.534;2022-09-27T14:06:00;12.95;;;1.38;;
48987;SDS011;34799;51.440;-2.534;2022-09-27T14:08:48;13.13;;;2.13;;
48987;SDS011;34799;51.440;-2.534;2022-09-27T14:11:26;8.63;;;1.10;;
48987;SDS011;34799;51.440;-2.534;2022-09-27T14:14:05;9.05;;;1.08;;
48987;SDS011;34799;51.440;-2.534;2022-09-27T14:16:43;9.38;;;0.95;;
48987;SDS011;34799;51.440;-2.534;2022-09-27T14:19:14;8.18;;;0.90;;
48987;SDS011;34799;51.440;-2.534;2022-09-27T14:21:47;10.02;;;0.70;;
48987;SDS011;34799;51.440;-2.534;2022-09-27T14:27:25;6.72;;;0.60;;
48987;SDS011;34799;51.440;-2.534;2022-09-27T14:30:25;3.65;;;0.40;;
48987;SDS011;34799;51.440;-2.534;2022-09-27T14:33:25;4.50;;;0.70;;
48987;SDS011;34799;51.440;-2.534;2022-09-27T14:35:56;10.25;;;0.80;;
48987;SDS011;34799;51.440;-2.534;2022-09-27T14:38:43;5.57;;;0.90;;
48987;SDS011;34799;51.440;-2.534;2022-09-27T14:41:25;9.65;;;0.80;;
48987;SDS011;34799;51.440;-2.534;2022-09-27T14:44:01;11.73;;;0.90;;
48987;SDS011;34799;51.440;-2.534;2022-09-27T14:46:29;9.73;;;0.80;;
48987;SDS011;34799;51.440;-2.534;2022-09-27T14:48:57;14.45;;;1.25;;
48987;SDS011;34799;51.440;-2.534;2022-09-27T14:51:26;12.85;;;1.52;;
48987;SDS011;34799;51.440;-2.534;2022-09-27T14:53:56;9.30;;;0.70;;
48987;SDS011;34799;51.440;-2.534;2022-09-27T14:56:28;14.18;;;1.52;;
48987;SDS011;34799;51.440;-2.534;2022-09-27T14:59:15;14.63;;;1.38;;
48987;SDS011;34799;51.440;-2.534;2022-09-27T15:01:52;16.38;;;2.17;;
48987;SDS011;34799;51.440;-2.534;2022-09-27T15:04:20;8.57;;;1.20;;
48987;SDS011;34799;51.440;-2.534;2022-09-27T15:06:49;8.80;;;0.95;;
48987;SDS011;34799;51.440;-2.534;2022-09-27T15:09:16;8.63;;;0.73;;
48987;SDS011;34799;51.440;-2.534;2022-09-27T15:11:45;10.68;;;1.00;;
48987;SDS011;34799;51.440;-2.534;2022-09-27T15:14:18;6.47;;;1.00;;
48987;SDS011;34799;51.440;-2.534;2022-09-27T15:16:48;12.48;;;1.83;;
48987;SDS011;34799;51.440;-2.534;2022-09-27T15:19:24;8.93;;;1.60;;
48987;SDS011;34799;51.440;-2.534;2022-09-27T15:21:55;12.82;;;1.50;;
48987;SDS011;34799;51.440;-2.534;2022-09-27T15:24:35;7.07;;;0.90;;
48987;SDS011;34799;51.440;-2.534;2022-09-27T15:27:04;14.18;;;1.23;;
48987;SDS011;34799;51.440;-2.534;2022-09-27T15:29:38;10.95;;;1.13;;
48987;SDS011;34799;51.440;-2.534;2022-09-27T15:32:05;10.20;;;0.95;;
48987;SDS011;34799;51.440;-2.534;2022-09-27T15:34:40;10.57;;;0.98;;
48987;SDS011;34799;51.440;-2.534;2022-09-27T15:37:09;10.70;;;1.75;;
48987;SDS011;34799;51.440;-2.534;2022-09-27T15:39:53;9.20;;;1.05;;
48987;SDS011;34799;51.440;-2.534;2022-09-27T15:42:20;9.88;;;1.13;;
48987;SDS011;34799;51.440;-2.534;2022-09-27T15:44:48;11.57;;;1.20;;
48987;SDS011;34799;51.440;-2.534;2022-09-27T15:49:57;17.33;;;1.35;;
48987;SDS011;34799;51.440;-2.534;2022-09-27T15:55:15;7.22;;;0.70;;
48987;SDS011;34799;51.440;-2.534;2022-09-27T15:57:47;10.57;;;1.15;;
48987;SDS011;34799;51.440;-2.534;2022-09-27T16:00:17;10.10;;;0.95;;
48987;SDS011;34799;51.440;-2.534;2022-09-27T16:02:47;7.15;;;0.95;;
48987;SDS011;34799;51.440;-2.534;2022-09-27T16:05:14;14.15;;;1.13;;
48987;SDS011;34799;51.440;-2.534;2022-09-27T16:07:41;8.63;;;1.30;;
48987;SDS011;34799;51.440;-2.534;2022-09-27T16:10:15;8.70;;;0.93;;
48987;SDS011;34799;51.440;-2.534;2022-09-27T16:12:48;11.73;;;1.40;;
48987;SDS011;34799;51.440;-2.534;2022-09-27T16:15:16;12.45;;;1.70;;
48987;SDS011;34799;51.440;-2.534;2022-09-27T16:17:43;10.60;;;0.93;;
48987;SDS011;34799;51.440;-2.534;2022-09-27T16:20:14;6.35;;;0.57;;
48987;SDS011;34799;51.440;-2.534;2022-09-27T16:22:44;10.60;;;0.65;;
48987;SDS011;34799;51.440;-2.534;2022-09-27T16:25:11;7.25;;;0.73;;
48987;SDS011;34799;51.440;-2.534;2022-09-27T16:27:40;8.07;;;1.00;;
48987;SDS011;34799;51.440;-2.534;2022-09-27T16:30:08;3.83;;;0.50;;
48987;SDS011;34799;51.440;-2.534;2022-09-27T16:32:42;9.07;;;1.52;;
48987;SDS011;34799;51.440;-2.534;2022-09-27T16:35:10;5.63;;;0.93;;
48987;SDS011;34799;51.440;-2.534;2022-09-27T16:37:39;4.22;;;0.75;;
48987;SDS011;34799;51.440;-2.534;2022-09-27T16:40:08;4.72;;;0.50;;
48987;SDS011;34799;51.440;-2.534;2022-09-27T16:42:36;6.90;;;0.65;;
48987;SDS011;34799;51.440;-2.534;2022-09-27T16:45:04;3.83;;;0.57;;
48987;SDS011;34799;51.440;-2.534;2022-09-27T16:47:35;4.13;;;0.88;;
48987;SDS011;34799;51.440;-2.534;2022-09-27T16:50:03;4.13;;;0.82;;
48987;SDS011;34799;51.440;-2.534;2022-09-27T16:52:49;4.45;;;0.30;;
48987;SDS011;34799;51.440;-2.534;2022-09-27T16:55:18;6.70;;;0.60;;
48987;SDS011;34799;51.440;-2.534;2022-09-27T16:57:46;7.18;;;0.68;;
48987;SDS011;34799;51.440;-2.534;2022-09-27T17:00:14;3.78;;;0.30;;
48987;SDS011;34799;51.440;-2.534;2022-09-27T17:02:46;8.88;;;1.75;;
48987;SDS011;34799;51.440;-2.534;2022-09-27T17:05:14;5.47;;;0.38;;
48987;SDS011;34799;51.440;-2.534;2022-09-27T17:07:41;4.63;;;0.50;;
48987;SDS011;34799;51.440;-2.534;2022-09-27T17:10:09;4.20;;;0.30;;
48987;SDS011;34799;51.440;-2.534;2022-09-27T17:12:37;7.32;;;0.70;;
48987;SDS011;34799;51.440;-2.534;2022-09-27T17:15:04;8.75;;;1.10;;
48987;SDS011;34799;51.440;-2.534;2022-09-27T17:17:31;6.03;;;0.52;;
48987;SDS011;34799;51.440;-2.534;2022-09-27T17:19:58;8.40;;;0.50;;
48987;SDS011;34799;51.440;-2.534;2022-09-27T17:22:25;8.98;;;1.00;;
48987;SDS011;34799;51.440;-2.534;2022-09-27T17:24:53;10.75;;;1.25;;
48987;SDS011;34799;51.440;-2.534;2022-09-27T17:27:21;6.60;;;0.73;;
48987;SDS011;34799;51.440;-2.534;2022-09-27T17:29:51;7.50;;;1.10;;
48987;SDS011;34799;51.440;-2.534;2022-09-27T17:32:20;8.55;;;1.02;;
48987;SDS011;34799;51.440;-2.534;2022-09-27T17:34:50;8.02;;;0.85;;
48987;SDS011;34799;51.440;-2.534;2022-09-27T17:37:17;5.97;;;0.93;;
48987;SDS011;34799;51.440;-2.534;2022-09-27T17:39:45;8.20;;;1.30;;
48987;SDS011;34799;51.440;-2.534;2022-09-27T17:42:13;8.43;;;1.02;;